Austin, Texas
Traffic Map
Current Weather Conditions
Austin, Texas
Overcast
Overcast
18°
Feels Like: 18°
Wind Chill: 18° Ceiling: 800
Heat Index: 18° Visibility: 10mi
Dew Point: 17° Wind: 6mph
Humidity: 90% Direction: ° ()
Pressure: 30.11in Gusts: 0mph
Raw Report DataKATT 300914Z AUTO VRB05KT 10SM OVC008 18/17 A3011 RMK AO2 T01830167 $
Traffic Incident Summary
Active as of:
Severity:
Category:
InformationThere was an issue retrieving the traffic information for this location. Please try a different location or try again shortly.
Advertisements
Track Severe Weather on mobile